• Join FlightAware (Why Join?)
  • Login
  • US Flag 
02:53PM EDT


 

Airport Tracker/Info


-or-


 

Live Flight TrackerFlight Track Log ✈ N137TK ✈ 19-Aug-2013 ✈ KGSO - KMFV

Flight Track Log - Related Links

Times and Time Zones

All times are in EDT time to prevent confusion due to time zone crossing. See the N137TK flight status page for this flight to view local times or setup timezone preferences in your user account.

Time Position Orientation Groundspeed Altitude Reporting Facility
EDT Latitude Longitude Course Direction KTS MPH feet Rate Location/Type
08:00AM 36.0644 -79.8267 55° Northeast 186 214 7,800  Level Washington Center
08:01AM 36.0994 -79.7797 47° Northeast 186 214 9,700 1,740 Climbing Washington Center
08:02AM 36.1347 -79.7250 51° Northeast 204 235 11,300 1,680 Climbing Washington Center
08:03AM 36.1824 -79.6933 55° Northeast  Level FlightAware Approximate
08:03AM 36.1786 -79.6631 49° Northeast 210 242 13,100  Level Washington Center
08:04AM 36.2218 -79.6241 55° Northeast  Level FlightAware Approximate
08:04AM 36.2203 -79.6058 48° Northeast 232 267 14,600  Level Washington Center
08:05AM 36.2606 -79.5544 55° Northeast  Level FlightAware Approximate
08:05AM 36.2683 -79.5361 49° Northeast 232 267 16,400  Level Washington Center
08:06AM 36.3100 -79.4792 48° Northeast 238 274 17,800 1,320 Climbing Washington Center
08:07AM 36.3581 -79.4067 51° Northeast 243 280 19,100 1,260 Climbing Washington Center
08:08AM 36.3897 -79.3333 62° Northeast 243 280 20,400 900 Climbing Washington Center
08:09AM 36.4131 -79.2544 70° East 238 274 21,000 300 Climbing Washington Center
08:10AM 36.4408 -79.1653 69° East 267 307 21,000  Level Washington Center
08:11AM 36.4728 -79.0711 67° East 284 327 21,000  Level Washington Center
08:12AM 36.5050 -78.9692 69° East 297 342 21,000  Level Washington Center
08:13AM 36.5350 -78.8647 70° East 309 356 21,000  Level Washington Center
08:14AM 36.5667 -78.7650 68° East 309 356 21,000  Level Washington Center
08:15AM 36.5967 -78.6603 70° East 314 361 21,000  Level Washington Center
08:16AM 36.6264 -78.5553 71° East 314 361 21,000  Level Washington Center
08:17AM 36.6581 -78.4531 69° East 314 361 21,000  Level Washington Center
08:18AM 36.6900 -78.3350 71° East 314 361 21,000  Level Washington Center
08:19AM 36.7217 -78.2325 69° East 314 361 21,000  Level Washington Center
08:20AM 36.7508 -78.1297 70° East 314 361 21,000  Level Washington Center
08:21AM 36.7822 -78.0244 70° East 314 361 21,000  Level Washington Center
08:22AM 36.8114 -77.9242 70° East 314 361 21,000  Level Washington Center
08:23AM 36.8447 -77.8214 68° East 314 361 21,000  Level Washington Center
08:24AM 36.8800 -77.7211 66° East 314 361 21,000  Level Washington Center
08:25AM 36.9214 -77.6208 63° Northeast 314 361 21,000  Level Washington Center
08:26AM 36.9583 -77.5206 65° Northeast 314 361 21,000  Level Washington Center
08:27AM 36.9997 -77.4203 63° Northeast 319 367 21,000  Level Washington Center
08:28AM 37.0386 -77.3194 64° Northeast 319 367 21,000  Level Washington Center
08:29AM 37.0775 -77.2189 64° Northeast 319 367 21,000  Level Washington Center
08:30AM 37.1186 -77.1208 62° Northeast 319 367 21,000 -120 Level Washington Center
08:31AM 37.1553 -77.0225 65° Northeast 319 367 20,800 -720 Descending Washington Center
08:32AM 37.2089 -76.8983 62° Northeast 336 387 19,500 -1,020 Descending Washington Center
08:33AM 37.2347 -76.8206 67° East 329 379 18,800 -1,020 Descending Washington Center
08:34AM 37.2772 -76.7167 63° Northeast 329 379 17,800 -960 Descending Washington Center
08:35AM 37.3181 -76.6103 64° Northeast 329 379 17,000 -960 Descending Washington Center
08:36AM 37.3458 -76.5008 72° East 324 373 16,000 -1,380 Descending Washington Center
08:37AM 37.3675 -76.4019 75° East 311 358 14,300 -1,860 Descending Washington Center
08:38AM 37.3869 -76.3028 76° East 295 339 12,300 -2,160 Descending Washington Center
08:39AM 37.4061 -76.2061 76° East 284 327 10,000 -2,460 Descending Washington Center
08:40AM 37.4275 -76.1150 74° East 260 299 7,400 -2,460 Descending Washington Center
08:41AM 37.4467 -76.0261 75° East 260 299 5,100 -2,160 Descending Washington Center
08:42AM 37.4614 -75.9450 77° East 252 290 3,300 -1,920 Descending Washington Center